createdAt,value
2022-11-08T00:00:03.655Z,99.90
2022-11-08T00:02:30.433Z,99.90
2022-11-08T00:05:17.779Z,99.90
2022-11-08T00:08:03.279Z,99.90
2022-11-08T00:10:48.534Z,99.90
2022-11-08T00:13:35.987Z,99.90
2022-11-08T00:16:02.877Z,99.90
2022-11-08T00:18:29.548Z,99.90
2022-11-08T00:21:00.074Z,99.90
2022-11-08T00:23:31.286Z,99.90
2022-11-08T00:25:57.937Z,99.90
2022-11-08T00:28:24.702Z,99.90
2022-11-08T00:30:56.092Z,99.90
2022-11-08T00:33:22.721Z,99.90
2022-11-08T00:36:00.376Z,99.90
2022-11-08T00:38:29.242Z,99.90
2022-11-08T00:40:58.133Z,99.90
2022-11-08T00:43:24.810Z,99.90
2022-11-08T00:45:53.838Z,99.90
2022-11-08T00:48:20.826Z,99.90
2022-11-08T00:50:47.792Z,99.90
2022-11-08T00:53:16.733Z,99.90
2022-11-08T00:55:43.481Z,99.90
2022-11-08T00:58:12.949Z,99.90
2022-11-08T01:00:39.688Z,99.90
2022-11-08T01:03:21.355Z,99.90
2022-11-08T01:05:49.258Z,99.90
2022-11-08T01:08:17.761Z,99.90
2022-11-08T01:10:47.198Z,99.90
2022-11-08T01:13:17.529Z,99.90
2022-11-08T01:15:49.670Z,99.90
2022-11-08T01:18:20.303Z,99.90
2022-11-08T01:20:50.554Z,99.90
2022-11-08T01:23:19.015Z,99.90
2022-11-08T01:25:47.061Z,99.90
2022-11-08T01:28:14.044Z,99.90
2022-11-08T01:30:43.144Z,99.90
2022-11-08T01:33:10.514Z,99.90
2022-11-08T01:35:37.779Z,99.90
2022-11-08T01:38:05.912Z,99.90
2022-11-08T01:40:33.403Z,99.90
2022-11-08T01:43:29.849Z,99.90
2022-11-08T01:46:20.010Z,99.90
2022-11-08T01:49:05.279Z,99.90
2022-11-08T01:51:39.613Z,99.90
2022-11-08T01:54:10.363Z,99.90
2022-11-08T01:56:38.087Z,99.90
2022-11-08T01:59:07.857Z,99.90
2022-11-08T02:01:37.932Z,99.90
2022-11-08T02:04:05.573Z,99.90
2022-11-08T02:06:36.285Z,99.90
2022-11-08T02:09:08.297Z,99.90
2022-11-08T02:11:37.486Z,99.90
2022-11-08T02:14:07.309Z,99.90
2022-11-08T02:16:34.016Z,99.90
2022-11-08T02:19:00.665Z,99.90
2022-11-08T02:21:44.558Z,99.90
2022-11-08T02:24:13.172Z,99.90
2022-11-08T02:26:40.900Z,99.90
2022-11-08T02:29:27.518Z,99.90
2022-11-08T02:31:57.786Z,99.90
2022-11-08T02:34:44.248Z,99.90
2022-11-08T02:37:16.345Z,99.90
2022-11-08T02:39:43.192Z,99.90
2022-11-08T02:42:14.374Z,99.90
2022-11-08T02:44:43.244Z,99.90
2022-11-08T02:47:09.972Z,99.90
2022-11-08T02:49:39.264Z,99.90
2022-11-08T02:52:08.787Z,99.90
2022-11-08T02:54:35.538Z,99.90
2022-11-08T02:57:04.611Z,99.90
2022-11-08T02:59:31.322Z,99.90
2022-11-08T03:01:58.139Z,99.90
2022-11-08T03:04:24.920Z,99.90
2022-11-08T03:06:51.624Z,99.90
2022-11-08T03:09:20.535Z,99.90
2022-11-08T03:11:49.766Z,99.90
2022-11-08T03:14:16.410Z,99.90
2022-11-08T03:16:45.426Z,99.90
2022-11-08T03:19:12.388Z,99.90
2022-11-08T03:21:41.260Z,99.90
2022-11-08T03:24:08.516Z,99.90
2022-11-08T03:26:35.193Z,99.90
2022-11-08T03:29:04.370Z,99.90
2022-11-08T03:31:33.513Z,99.90
2022-11-08T03:34:00.184Z,99.90
2022-11-08T03:36:26.949Z,99.90
2022-11-08T03:38:56.144Z,99.90
2022-11-08T03:41:22.862Z,99.90
2022-11-08T03:43:49.486Z,99.90
2022-11-08T03:46:16.277Z,99.90
2022-11-08T03:48:42.961Z,99.90
2022-11-08T03:51:14.347Z,99.90
2022-11-08T03:53:41.047Z,99.90
2022-11-08T03:56:08.281Z,99.90
2022-11-08T03:58:37.396Z,99.90
2022-11-08T04:01:05.903Z,99.90
2022-11-08T04:03:34.755Z,99.90
2022-11-08T04:06:03.040Z,99.90
2022-11-08T04:08:30.271Z,99.90
2022-11-08T04:11:17.925Z,99.90
2022-11-08T04:14:05.587Z,99.90
2022-11-08T04:16:33.115Z,99.90
2022-11-08T04:19:19.392Z,99.90
2022-11-08T04:21:48.514Z,99.90
2022-11-08T04:24:15.212Z,99.90
2022-11-08T04:26:41.898Z,99.90
2022-11-08T04:29:09.665Z,99.90
2022-11-08T04:31:36.656Z,99.90
2022-11-08T04:34:03.684Z,99.90
2022-11-08T04:36:33.346Z,99.90
2022-11-08T04:39:04.378Z,99.90
2022-11-08T04:41:31.156Z,99.90
2022-11-08T04:44:02.833Z,99.90
2022-11-08T04:46:30.103Z,99.90
2022-11-08T04:48:59.145Z,99.90
2022-11-08T04:51:34.069Z,99.90
2022-11-08T04:54:02.359Z,99.90
2022-11-08T04:56:32.874Z,99.90
2022-11-08T04:59:05.264Z,99.90
2022-11-08T05:01:37.468Z,99.90
2022-11-08T05:04:04.383Z,99.90
2022-11-08T05:06:32.368Z,99.90
2022-11-08T05:08:59.941Z,99.90
2022-11-08T05:11:30.510Z,99.90
2022-11-08T05:13:59.718Z,99.90
2022-11-08T05:16:29.292Z,99.90
2022-11-08T05:18:58.504Z,99.90
2022-11-08T05:21:44.456Z,99.90
2022-11-08T05:24:13.952Z,99.90
2022-11-08T05:26:42.542Z,99.90
2022-11-08T05:29:09.610Z,99.90
2022-11-08T05:31:36.392Z,99.90
2022-11-08T05:34:03.505Z,99.90
2022-11-08T05:36:30.480Z,99.90
2022-11-08T05:38:57.301Z,99.90
2022-11-08T05:41:25.427Z,99.90
2022-11-08T05:43:56.011Z,99.90
2022-11-08T05:46:23.823Z,99.90
2022-11-08T05:48:53.562Z,99.90
2022-11-08T05:51:22.740Z,99.90
2022-11-08T05:53:51.995Z,99.90
2022-11-08T05:56:20.878Z,99.90
2022-11-08T05:58:47.538Z,99.90
2022-11-08T06:01:18.647Z,99.90
2022-11-08T06:03:48.614Z,99.90
2022-11-08T06:06:22.067Z,99.90
2022-11-08T06:08:52.154Z,99.90
2022-11-08T06:11:22.718Z,99.90
2022-11-08T06:14:00.187Z,99.90
2022-11-08T06:16:29.140Z,99.90
2022-11-08T06:19:02.830Z,99.90
2022-11-08T06:21:32.186Z,99.90
2022-11-08T06:24:01.382Z,99.90
2022-11-08T06:26:28.215Z,99.90
2022-11-08T06:28:54.935Z,99.90
2022-11-08T06:31:24.182Z,99.90
2022-11-08T06:33:50.858Z,99.90
2022-11-08T06:36:17.666Z,99.90
2022-11-08T06:38:46.734Z,99.90
2022-11-08T06:41:19.279Z,99.90
2022-11-08T06:43:48.744Z,99.90
2022-11-08T06:46:15.998Z,99.90
2022-11-08T06:48:42.627Z,99.90
2022-11-08T06:51:11.495Z,99.90
2022-11-08T06:53:38.289Z,99.90
2022-11-08T06:56:05.089Z,99.90
2022-11-08T06:58:31.859Z,99.90
2022-11-08T07:00:58.619Z,99.90
2022-11-08T07:03:25.314Z,99.90
2022-11-08T07:05:52.355Z,99.90
2022-11-08T07:08:24.019Z,99.90
2022-11-08T07:10:52.300Z,99.90
2022-11-08T07:13:19.501Z,99.90
2022-11-08T07:15:48.852Z,99.90
2022-11-08T07:18:17.980Z,99.90
2022-11-08T07:20:45.044Z,99.90
2022-11-08T07:23:12.152Z,99.90
2022-11-08T07:25:41.175Z,99.90
2022-11-08T07:28:18.341Z,99.90
2022-11-08T07:30:46.340Z,99.90
2022-11-08T07:33:16.744Z,99.90
2022-11-08T07:35:47.697Z,99.90
2022-11-08T07:38:14.516Z,99.90
2022-11-08T07:40:44.022Z,99.90
2022-11-08T07:43:13.408Z,99.90
2022-11-08T07:45:41.713Z,99.90
2022-11-08T07:48:12.613Z,99.90
2022-11-08T07:50:43.735Z,99.90
2022-11-08T07:53:10.695Z,99.90
2022-11-08T07:55:38.313Z,99.90
2022-11-08T07:58:05.628Z,99.90
2022-11-08T08:00:36.883Z,99.90
2022-11-08T08:03:07.649Z,99.90
2022-11-08T08:05:40.077Z,99.90
2022-11-08T08:08:07.822Z,99.90
2022-11-08T08:10:42.101Z,99.90
2022-11-08T08:13:12.037Z,99.90
2022-11-08T08:15:39.044Z,99.90
2022-11-08T08:18:07.375Z,99.90
2022-11-08T08:20:34.791Z,99.90
2022-11-08T08:23:01.836Z,99.90
2022-11-08T08:25:32.015Z,99.90
2022-11-08T08:28:00.887Z,99.90
2022-11-08T08:30:31.369Z,99.90
2022-11-08T08:33:33.216Z,99.90
2022-11-08T08:36:03.319Z,99.90
2022-11-08T08:38:33.667Z,99.90
2022-11-08T08:41:03.507Z,99.90
2022-11-08T08:43:32.666Z,99.90
2022-11-08T08:46:04.848Z,99.90
2022-11-08T08:48:34.113Z,99.90
2022-11-08T08:51:03.308Z,99.90
2022-11-08T08:53:30.024Z,99.90
2022-11-08T08:55:59.277Z,99.90
2022-11-08T08:58:25.932Z,99.90
2022-11-08T09:03:46.768Z,99.90
2022-11-08T09:06:13.453Z,99.90
2022-11-08T09:08:40.165Z,99.90
2022-11-08T09:11:09.158Z,99.90
2022-11-08T09:13:40.397Z,99.90
2022-11-08T09:16:10.209Z,99.90
2022-11-08T09:18:37.069Z,99.90
2022-11-08T09:21:04.375Z,99.90
2022-11-08T09:23:31.454Z,99.80
2022-11-08T09:26:03.780Z,99.40
2022-11-08T09:28:32.125Z,99.30
2022-11-08T09:31:09.943Z,99.50
2022-11-08T09:33:40.590Z,99.40
2022-11-08T09:36:09.236Z,99.20
2022-11-08T09:38:41.552Z,99.00
2022-11-08T09:41:17.017Z,98.70
2022-11-08T09:44:01.200Z,98.70
2022-11-08T09:46:51.519Z,98.40
2022-11-08T09:49:34.146Z,98.30
2022-11-08T09:52:04.360Z,98.00
2022-11-08T09:54:53.941Z,97.70
2022-11-08T09:57:26.485Z,97.40
2022-11-08T10:00:05.774Z,96.90
2022-11-08T10:02:36.677Z,97.00
2022-11-08T10:05:09.504Z,96.90
2022-11-08T10:07:52.023Z,97.10
2022-11-08T10:10:48.593Z,96.80
2022-11-08T10:13:33.025Z,96.70
2022-11-08T10:16:14.594Z,96.70
2022-11-08T10:18:59.868Z,96.50
2022-11-08T10:21:47.890Z,96.50
2022-11-08T10:24:32.695Z,96.40
2022-11-08T10:27:00.385Z,96.50
2022-11-08T10:29:37.364Z,96.30
2022-11-08T10:32:15.982Z,96.30
2022-11-08T10:34:55.904Z,96.30
2022-11-08T10:37:24.150Z,96.40
2022-11-08T10:40:34.474Z,96.20
2022-11-08T10:43:13.629Z,96.20
2022-11-08T10:45:43.232Z,95.90
2022-11-08T10:48:11.922Z,96.00
2022-11-08T10:50:50.846Z,95.90
2022-11-08T10:53:24.465Z,95.70
2022-11-08T10:55:58.149Z,95.50
2022-11-08T10:58:38.951Z,95.50
2022-11-08T11:01:19.560Z,95.30
2022-11-08T11:03:48.106Z,95.30
2022-11-08T11:06:33.546Z,95.20
2022-11-08T11:09:04.476Z,95.50
2022-11-08T11:11:31.169Z,95.00
2022-11-08T11:14:07.843Z,94.90
2022-11-08T11:16:38.372Z,94.90
2022-11-08T11:19:06.947Z,96.50
2022-11-08T11:21:39.859Z,94.10
2022-11-08T11:24:19.387Z,94.00
2022-11-08T11:27:05.871Z,93.70
2022-11-08T11:29:37.324Z,93.50
2022-11-08T11:32:33.499Z,93.10
2022-11-08T11:35:03.070Z,92.60
2022-11-08T11:37:45.867Z,92.40
2022-11-08T11:40:42.662Z,92.30
2022-11-08T11:43:24.252Z,92.50
2022-11-08T11:46:04.535Z,92.60
2022-11-08T11:48:39.547Z,92.60
2022-11-08T11:51:10.635Z,92.50
2022-11-08T11:53:39.786Z,92.40
2022-11-08T11:56:26.238Z,92.30
2022-11-08T11:59:05.517Z,92.40
2022-11-08T12:01:54.014Z,92.50
2022-11-08T12:04:38.616Z,92.60
2022-11-08T12:07:16.476Z,92.80
2022-11-08T12:09:51.623Z,92.80
2022-11-08T12:12:23.544Z,93.20
2022-11-08T12:15:23.901Z,93.10
2022-11-08T12:18:08.015Z,93.30
2022-11-08T12:20:49.317Z,93.60
2022-11-08T12:23:51.740Z,93.70
2022-11-08T12:26:43.160Z,93.80
2022-11-08T12:29:29.486Z,93.90
2022-11-08T12:32:20.558Z,94.10
2022-11-08T12:35:15.079Z,93.90
2022-11-08T12:37:41.743Z,93.90
2022-11-08T12:40:27.701Z,94.00
2022-11-08T12:43:15.635Z,94.00
2022-11-08T12:46:00.208Z,94.20
2022-11-08T12:49:05.152Z,93.90
2022-11-08T12:52:10.244Z,93.90
2022-11-08T12:54:51.455Z,94.20
2022-11-08T12:57:28.040Z,93.90
2022-11-08T13:00:33.049Z,93.90
2022-11-08T13:03:12.341Z,93.90
2022-11-08T13:06:00.797Z,94.00
2022-11-08T13:08:37.625Z,94.00
2022-11-08T13:11:08.009Z,94.00
2022-11-08T13:13:37.523Z,93.90
2022-11-08T13:16:18.476Z,93.90
2022-11-08T13:18:50.980Z,93.90
2022-11-08T13:21:38.972Z,93.60
2022-11-08T13:24:14.223Z,93.70
2022-11-08T13:26:55.871Z,94.00
2022-11-08T13:29:27.365Z,93.80
2022-11-08T13:31:54.029Z,93.90
2022-11-08T13:34:49.697Z,93.70
2022-11-08T13:37:39.075Z,93.70
2022-11-08T13:40:43.794Z,93.90
2022-11-08T13:43:21.274Z,93.90
2022-11-08T13:45:48.632Z,93.90
2022-11-08T13:48:25.124Z,93.90
2022-11-08T13:50:57.190Z,94.00
2022-11-08T13:53:51.426Z,94.00
2022-11-08T13:56:23.930Z,94.00
2022-11-08T13:58:50.931Z,93.70
2022-11-08T14:01:25.920Z,93.40
2022-11-08T14:03:56.626Z,93.10
2022-11-08T14:06:56.979Z,93.00
2022-11-08T14:10:11.665Z,92.50
2022-11-08T14:12:53.446Z,92.40
2022-11-08T14:15:24.837Z,92.40
2022-11-08T14:18:18.556Z,92.30
2022-11-08T14:20:47.021Z,92.20
2022-11-08T14:23:20.214Z,91.70
2022-11-08T14:25:55.895Z,91.70
2022-11-08T14:28:32.568Z,91.60
2022-11-08T14:31:05.731Z,91.60
2022-11-08T14:33:40.709Z,91.50
2022-11-08T14:36:13.538Z,91.70
2022-11-08T14:38:59.336Z,91.80
2022-11-08T14:41:28.873Z,91.80
2022-11-08T14:44:00.743Z,91.80
2022-11-08T14:46:37.140Z,91.80
2022-11-08T14:49:21.716Z,92.00
2022-11-08T14:52:17.233Z,92.10
2022-11-08T14:54:46.601Z,92.50
2022-11-08T14:57:35.535Z,92.30
2022-11-08T15:00:14.399Z,92.20
2022-11-08T15:02:44.328Z,92.30
2022-11-08T15:05:40.393Z,92.20
2022-11-08T15:08:22.625Z,92.20
2022-11-08T15:10:56.895Z,92.20
2022-11-08T15:13:28.927Z,92.40
2022-11-08T15:16:01.407Z,92.60
2022-11-08T15:18:43.166Z,92.60
2022-11-08T15:21:13.628Z,92.60
2022-11-08T15:23:46.628Z,92.60
2022-11-08T15:26:19.545Z,92.70
2022-11-08T15:29:08.263Z,92.80
2022-11-08T15:31:42.219Z,93.00
2022-11-08T15:34:37.211Z,93.00
2022-11-08T15:37:29.522Z,92.90
2022-11-08T15:40:00.416Z,92.90
2022-11-08T15:42:29.431Z,92.90
2022-11-08T15:45:05.587Z,93.00
2022-11-08T15:47:37.360Z,93.00
2022-11-08T15:50:14.681Z,93.00
2022-11-08T15:52:42.162Z,93.00
2022-11-08T15:55:14.790Z,93.00
2022-11-08T15:57:43.729Z,92.90
2022-11-08T16:00:15.831Z,92.90
2022-11-08T16:02:43.136Z,92.90
2022-11-08T16:05:25.321Z,93.00
2022-11-08T16:07:52.608Z,92.90
2022-11-08T16:10:26.124Z,92.80
2022-11-08T16:12:55.404Z,92.70
2022-11-08T16:15:28.744Z,92.60
2022-11-08T16:17:55.615Z,92.60
2022-11-08T16:20:27.833Z,92.60
2022-11-08T16:22:59.258Z,92.60
2022-11-08T16:25:29.752Z,92.70
2022-11-08T16:28:09.158Z,92.80
2022-11-08T16:30:36.128Z,92.80
2022-11-08T16:33:15.994Z,92.70
2022-11-08T16:35:42.697Z,92.80
2022-11-08T16:38:11.773Z,92.90
2022-11-08T16:40:41.340Z,93.00
2022-11-08T16:43:11.887Z,93.10
2022-11-08T16:46:03.659Z,93.10
2022-11-08T16:48:29.745Z,93.20
2022-11-08T16:51:03.807Z,93.40
2022-11-08T16:53:33.145Z,93.50
2022-11-08T16:56:00.124Z,93.40
2022-11-08T16:58:31.500Z,93.40
2022-11-08T17:00:58.327Z,93.60
2022-11-08T17:03:26.335Z,93.50
2022-11-08T17:05:55.322Z,93.50
2022-11-08T17:08:22.827Z,93.60
2022-11-08T17:10:49.544Z,93.80
2022-11-08T17:13:20.164Z,93.80
2022-11-08T17:15:48.431Z,93.80
2022-11-08T17:18:22.079Z,93.90
2022-11-08T17:20:52.530Z,93.90
2022-11-08T17:23:19.602Z,94.00
2022-11-08T17:25:46.514Z,94.10
2022-11-08T17:28:13.523Z,94.30
2022-11-08T17:30:44.440Z,94.50
2022-11-08T17:33:48.336Z,94.60
2022-11-08T17:36:19.498Z,94.60
2022-11-08T17:38:49.195Z,94.70
2022-11-08T17:41:19.073Z,94.80
2022-11-08T17:43:50.870Z,94.70
2022-11-08T17:46:28.072Z,94.60
2022-11-08T17:48:54.831Z,94.70
2022-11-08T17:51:31.118Z,94.80
2022-11-08T17:54:00.511Z,94.70
2022-11-08T17:56:33.356Z,94.70
2022-11-08T17:59:00.135Z,94.70
2022-11-08T18:01:29.079Z,94.70
2022-11-08T18:03:55.874Z,94.60
2022-11-08T18:06:22.553Z,94.50
2022-11-08T18:08:51.684Z,94.50
2022-11-08T18:11:21.170Z,94.60
2022-11-08T18:13:48.135Z,94.50
2022-11-08T18:16:17.904Z,94.50
2022-11-08T18:18:46.952Z,94.90
2022-11-08T18:21:14.577Z,94.70
2022-11-08T18:23:45.078Z,94.70
2022-11-08T18:26:17.571Z,94.80
2022-11-08T18:28:47.181Z,94.80
2022-11-08T18:31:20.141Z,94.90
2022-11-08T18:33:48.144Z,95.10
2022-11-08T18:36:20.350Z,94.80
2022-11-08T18:38:51.333Z,94.80
2022-11-08T18:41:25.304Z,94.70
2022-11-08T18:43:53.237Z,94.70
2022-11-08T18:46:25.098Z,94.70
2022-11-08T18:48:54.668Z,94.70
2022-11-08T18:51:24.830Z,94.80
2022-11-08T18:53:55.038Z,94.80
2022-11-08T18:56:21.783Z,94.90
2022-11-08T18:58:51.059Z,95.00
2022-11-08T19:01:20.183Z,95.00
2022-11-08T19:03:46.922Z,95.00
2022-11-08T19:06:16.482Z,95.00
2022-11-08T19:08:43.257Z,95.10
2022-11-08T19:11:12.019Z,95.10
2022-11-08T19:13:42.883Z,95.20
2022-11-08T19:16:18.528Z,95.20
2022-11-08T19:18:49.647Z,95.20
2022-11-08T19:21:22.015Z,95.20
2022-11-08T19:23:49.781Z,95.30
2022-11-08T19:26:21.845Z,95.20
2022-11-08T19:28:49.402Z,95.30
2022-11-08T19:31:22.876Z,95.40
2022-11-08T19:33:51.880Z,95.70
2022-11-08T19:36:21.817Z,95.50
2022-11-08T19:38:49.514Z,95.80
2022-11-08T19:41:21.958Z,95.90
2022-11-08T19:43:51.800Z,96.00
2022-11-08T19:46:24.034Z,96.00
2022-11-08T19:48:52.321Z,96.10
2022-11-08T19:51:25.003Z,96.10
2022-11-08T19:54:12.588Z,96.10
2022-11-08T19:57:04.065Z,96.10
2022-11-08T19:59:28.396Z,96.20
2022-11-08T20:01:57.407Z,96.30
2022-11-08T20:04:24.730Z,96.30
2022-11-08T20:06:53.741Z,96.30
2022-11-08T20:09:21.337Z,96.40
2022-11-08T20:11:50.356Z,96.40
2022-11-08T20:14:17.179Z,96.30
2022-11-08T20:16:49.171Z,96.30
2022-11-08T20:19:19.201Z,96.20
2022-11-08T20:21:48.363Z,96.20
2022-11-08T20:24:15.615Z,96.30
2022-11-08T20:26:42.906Z,96.60
2022-11-08T20:29:14.085Z,96.30
2022-11-08T20:31:46.794Z,96.20
2022-11-08T20:34:13.486Z,96.30
2022-11-08T20:36:41.668Z,96.30
2022-11-08T20:39:17.021Z,96.30
2022-11-08T20:41:48.710Z,96.30
2022-11-08T20:44:20.023Z,96.30
2022-11-08T20:46:49.345Z,96.40
2022-11-08T20:49:18.555Z,96.30
2022-11-08T20:51:47.972Z,96.30
2022-11-08T20:54:43.898Z,96.50
2022-11-08T20:57:10.843Z,96.20
2022-11-08T20:59:37.572Z,96.40
2022-11-08T21:02:04.587Z,96.50
2022-11-08T21:04:31.412Z,96.50
2022-11-08T21:07:59.433Z,96.50
2022-11-08T21:09:51.759Z,96.40
2022-11-08T21:12:25.091Z,96.50
2022-11-08T21:14:54.142Z,96.60
2022-11-08T21:17:22.521Z,96.60
2022-11-08T21:19:51.972Z,96.60
2022-11-08T21:22:21.584Z,96.60
2022-11-08T21:24:49.200Z,96.60
2022-11-08T21:27:16.995Z,96.90
2022-11-08T21:29:45.996Z,96.60
2022-11-08T21:32:15.421Z,96.80
2022-11-08T21:34:45.594Z,96.70
2022-11-08T21:37:13.525Z,96.70
2022-11-08T21:39:44.891Z,96.60
2022-11-08T21:42:11.702Z,96.60
2022-11-08T21:44:41.456Z,96.60
2022-11-08T21:47:08.174Z,96.70
2022-11-08T21:49:34.881Z,96.70
2022-11-08T21:52:02.198Z,96.80
2022-11-08T21:54:28.879Z,96.90
2022-11-08T21:57:00.253Z,96.90
2022-11-08T21:59:26.933Z,97.00
2022-11-08T22:01:53.615Z,97.10
2022-11-08T22:04:22.438Z,97.10
2022-11-08T22:06:49.256Z,97.20
2022-11-08T22:09:18.516Z,97.30
2022-11-08T22:11:47.586Z,97.40
2022-11-08T22:14:16.869Z,97.50
2022-11-08T22:16:43.621Z,97.60
2022-11-08T22:19:13.403Z,97.50
2022-11-08T22:21:43.072Z,97.70
2022-11-08T22:24:10.002Z,97.70
2022-11-08T22:26:40.063Z,97.70
2022-11-08T22:29:07.352Z,97.80
2022-11-08T22:31:36.165Z,97.90
2022-11-08T22:34:08.267Z,97.90
2022-11-08T22:36:37.811Z,97.80
2022-11-08T22:39:17.179Z,97.90
2022-11-08T22:41:45.168Z,97.90
2022-11-08T22:44:13.192Z,98.00
2022-11-08T22:46:43.371Z,98.00
2022-11-08T22:49:11.343Z,98.10
2022-11-08T22:51:39.034Z,98.10
2022-11-08T22:54:07.880Z,98.20
2022-11-08T22:56:41.785Z,98.30
2022-11-08T22:59:08.796Z,98.30
2022-11-08T23:01:35.820Z,98.40
2022-11-08T23:04:02.813Z,98.40
2022-11-08T23:06:30.139Z,98.50
2022-11-08T23:08:57.412Z,98.60
2022-11-08T23:11:44.811Z,98.70
2022-11-08T23:14:37.168Z,98.80
2022-11-08T23:17:08.003Z,98.80
2022-11-08T23:19:55.607Z,99.00
2022-11-08T23:22:40.976Z,99.00
2022-11-08T23:25:07.865Z,99.10
2022-11-08T23:27:52.961Z,99.00
2022-11-08T23:30:55.287Z,99.10
2022-11-08T23:33:26.454Z,99.20
2022-11-08T23:36:11.358Z,99.20
2022-11-08T23:38:44.266Z,99.20
2022-11-08T23:41:29.464Z,99.20
2022-11-08T23:44:14.918Z,99.30
2022-11-08T23:46:41.675Z,99.40
2022-11-08T23:49:08.371Z,99.40
2022-11-08T23:51:37.219Z,99.40
2022-11-08T23:54:04.007Z,99.40
2022-11-08T23:56:30.697Z,99.50
2022-11-08T23:58:59.356Z,99.90
